createdAt,value
2023-03-29T00:01:42.954Z,46.10
2023-03-29T00:04:10.361Z,46.00
2023-03-29T00:06:37.939Z,46.00
2023-03-29T00:09:06.244Z,45.90
2023-03-29T00:11:33.139Z,45.90
2023-03-29T00:14:00.002Z,45.60
2023-03-29T00:16:26.938Z,45.50
2023-03-29T00:18:53.802Z,45.40
2023-03-29T00:21:20.683Z,45.30
2023-03-29T00:23:47.498Z,45.30
2023-03-29T00:26:14.302Z,45.20
2023-03-29T00:28:41.156Z,45.10
2023-03-29T00:31:10.010Z,45.10
2023-03-29T00:33:37.072Z,45.00
2023-03-29T00:36:04.626Z,44.90
2023-03-29T00:38:31.837Z,44.80
2023-03-29T00:40:59.134Z,45.50
2023-03-29T00:43:26.551Z,45.00
2023-03-29T00:45:53.866Z,45.00
2023-03-29T00:48:25.880Z,45.20
2023-03-29T00:50:52.783Z,45.30
2023-03-29T00:53:19.587Z,45.50
2023-03-29T00:55:49.873Z,45.60
2023-03-29T00:58:20.353Z,45.70
2023-03-29T01:00:52.403Z,45.80
2023-03-29T01:03:25.139Z,45.80
2023-03-29T01:05:55.071Z,45.80
2023-03-29T01:08:26.257Z,45.80
2023-03-29T01:11:12.338Z,45.90
2023-03-29T01:13:46.859Z,45.90
2023-03-29T01:16:14.122Z,46.10
2023-03-29T01:18:41.962Z,46.30
2023-03-29T01:21:24.620Z,46.50
2023-03-29T01:24:07.036Z,46.60
2023-03-29T01:27:03.745Z,46.80
2023-03-29T01:29:43.228Z,46.90
2023-03-29T01:32:12.857Z,46.90
2023-03-29T01:34:50.352Z,47.00
2023-03-29T01:37:24.626Z,47.10
2023-03-29T01:39:52.361Z,47.20
2023-03-29T01:42:36.463Z,47.30
2023-03-29T01:45:12.646Z,47.50
2023-03-29T01:47:42.657Z,47.50
2023-03-29T01:50:18.517Z,47.40
2023-03-29T01:52:48.767Z,47.50
2023-03-29T01:55:18.525Z,47.50
2023-03-29T01:57:46.591Z,47.50
2023-03-29T02:00:19.282Z,47.40
2023-03-29T02:02:47.089Z,47.40
2023-03-29T02:05:15.206Z,47.20
2023-03-29T02:07:43.592Z,47.20
2023-03-29T02:10:11.438Z,47.30
2023-03-29T02:12:39.155Z,47.40
2023-03-29T02:15:10.458Z,47.60
2023-03-29T02:17:37.256Z,48.00
2023-03-29T02:20:13.890Z,48.30
2023-03-29T02:22:44.828Z,48.40
2023-03-29T02:25:12.934Z,48.30
2023-03-29T02:27:39.922Z,48.40
2023-03-29T02:30:07.207Z,48.30
2023-03-29T02:32:36.995Z,48.30
2023-03-29T02:35:13.356Z,48.40
2023-03-29T02:37:42.265Z,48.40
2023-03-29T02:40:12.464Z,48.70
2023-03-29T02:42:40.869Z,48.80
2023-03-29T02:45:08.542Z,48.80
2023-03-29T02:47:39.416Z,48.80
2023-03-29T02:50:07.506Z,48.90
2023-03-29T02:52:37.148Z,48.90
2023-03-29T02:55:06.340Z,49.00
2023-03-29T02:57:35.570Z,49.00
2023-03-29T03:00:07.030Z,49.10
2023-03-29T03:02:33.961Z,49.00
2023-03-29T03:05:01.044Z,49.00
2023-03-29T03:07:28.724Z,48.90
2023-03-29T03:09:55.838Z,49.00
2023-03-29T03:12:22.761Z,49.10
2023-03-29T03:14:49.939Z,48.90
2023-03-29T03:17:18.904Z,48.90
2023-03-29T03:19:47.409Z,49.10
2023-03-29T03:22:14.934Z,49.30
2023-03-29T03:24:43.021Z,49.50
2023-03-29T03:27:11.801Z,49.30
2023-03-29T03:29:38.719Z,49.30
2023-03-29T03:32:32.581Z,49.40
2023-03-29T03:35:28.616Z,49.30
2023-03-29T03:37:55.522Z,49.50
2023-03-29T03:40:22.787Z,49.60
2023-03-29T03:42:49.615Z,49.50
2023-03-29T03:45:16.910Z,49.20
2023-03-29T03:48:07.240Z,49.00
2023-03-29T03:50:51.858Z,48.90
2023-03-29T03:53:19.187Z,48.80
2023-03-29T03:56:09.230Z,49.50
2023-03-29T03:58:49.085Z,48.80
2023-03-29T04:01:19.735Z,48.90
2023-03-29T04:03:58.807Z,49.30
2023-03-29T04:06:30.658Z,49.70
2023-03-29T04:09:20.732Z,50.10
2023-03-29T04:11:54.480Z,50.30
2023-03-29T04:14:21.599Z,50.20
2023-03-29T04:17:17.755Z,50.00
2023-03-29T04:19:51.107Z,49.80
2023-03-29T04:22:17.975Z,49.60
2023-03-29T04:24:44.895Z,49.60
2023-03-29T04:27:30.381Z,49.70
2023-03-29T04:29:59.165Z,49.50
2023-03-29T04:32:46.229Z,49.40
2023-03-29T04:35:13.225Z,49.20
2023-03-29T04:37:40.460Z,48.90
2023-03-29T04:40:10.056Z,49.00
2023-03-29T04:42:51.741Z,49.00
2023-03-29T04:45:19.835Z,48.80
2023-03-29T04:48:10.750Z,48.50
2023-03-29T04:50:41.553Z,48.40
2023-03-29T04:53:08.596Z,48.40
2023-03-29T04:55:35.744Z,48.60
2023-03-29T04:58:02.875Z,48.80
2023-03-29T05:00:38.909Z,49.00
2023-03-29T05:03:06.949Z,49.20
2023-03-29T05:05:38.505Z,49.30
2023-03-29T05:08:07.217Z,49.30
2023-03-29T05:10:44.145Z,49.30
2023-03-29T05:13:12.361Z,49.50
2023-03-29T05:15:41.662Z,49.50
2023-03-29T05:18:09.700Z,49.80
2023-03-29T05:20:37.750Z,50.00
2023-03-29T05:23:04.728Z,50.10
2023-03-29T05:25:50.299Z,50.30
2023-03-29T05:28:18.322Z,50.40
2023-03-29T05:30:45.890Z,50.40
2023-03-29T05:33:20.954Z,50.40
2023-03-29T05:35:47.866Z,50.40
2023-03-29T05:38:16.081Z,50.40
2023-03-29T05:40:43.268Z,50.20
2023-03-29T05:43:28.752Z,50.30
2023-03-29T05:45:56.417Z,50.30
2023-03-29T05:48:23.900Z,50.50
2023-03-29T05:50:52.277Z,50.20
2023-03-29T05:53:19.994Z,49.80
2023-03-29T05:55:47.354Z,49.40
2023-03-29T05:58:20.598Z,49.10
2023-03-29T06:00:52.180Z,48.40
2023-03-29T06:03:48.166Z,47.60
2023-03-29T06:06:17.644Z,46.50
2023-03-29T06:08:44.989Z,45.50
2023-03-29T06:11:17.792Z,45.00
2023-03-29T06:14:02.958Z,44.30
2023-03-29T06:16:30.273Z,43.30
2023-03-29T06:18:57.273Z,42.30
2023-03-29T06:21:26.594Z,41.80
2023-03-29T06:23:54.124Z,41.50
2023-03-29T06:26:21.764Z,41.10
2023-03-29T06:28:52.055Z,40.70
2023-03-29T06:31:19.933Z,40.50
2023-03-29T06:33:49.578Z,40.80
2023-03-29T06:36:36.694Z,40.20
2023-03-29T06:39:04.274Z,39.50
2023-03-29T06:41:49.902Z,38.80
2023-03-29T06:44:34.779Z,37.80
2023-03-29T06:47:09.843Z,36.90
2023-03-29T06:49:36.819Z,35.90
2023-03-29T06:52:26.617Z,34.60
2023-03-29T06:54:54.041Z,33.20
2023-03-29T06:57:24.234Z,31.50
2023-03-29T06:59:51.271Z,30.80
2023-03-29T07:02:24.371Z,30.40
2023-03-29T07:04:56.282Z,29.20
2023-03-29T07:07:53.334Z,28.80
2023-03-29T07:10:28.666Z,28.50
2023-03-29T07:13:14.615Z,28.30
2023-03-29T07:15:43.273Z,27.60
2023-03-29T07:18:18.411Z,26.80
2023-03-29T07:20:47.560Z,26.00
2023-03-29T07:23:14.980Z,25.90
2023-03-29T07:25:42.102Z,25.50
2023-03-29T07:28:09.245Z,25.10
2023-03-29T07:30:37.196Z,24.60
2023-03-29T07:33:19.094Z,23.90
2023-03-29T07:35:51.970Z,23.90
2023-03-29T07:38:18.924Z,23.80
2023-03-29T07:40:50.120Z,24.10
2023-03-29T07:43:39.197Z,24.20
2023-03-29T07:46:07.066Z,24.30
2023-03-29T07:48:37.164Z,24.30
2023-03-29T07:51:15.235Z,24.40
2023-03-29T07:53:48.037Z,24.40
2023-03-29T07:56:33.637Z,24.40
2023-03-29T07:59:15.514Z,24.50
2023-03-29T08:01:44.835Z,24.70
2023-03-29T08:04:40.186Z,25.10
2023-03-29T08:07:10.058Z,25.40
2023-03-29T08:09:55.896Z,25.70
2023-03-29T08:12:32.676Z,26.40
2023-03-29T08:15:00.354Z,26.40
2023-03-29T08:17:32.252Z,26.10
2023-03-29T08:19:59.312Z,25.60
2023-03-29T08:22:26.170Z,25.80
2023-03-29T08:25:31.890Z,25.60
2023-03-29T08:27:59.214Z,25.30
2023-03-29T08:30:37.772Z,25.60
2023-03-29T08:33:05.620Z,24.70
2023-03-29T08:35:33.055Z,24.80
2023-03-29T08:38:11.234Z,25.10
2023-03-29T08:40:38.178Z,24.60
2023-03-29T08:43:19.549Z,24.40
2023-03-29T08:46:34.529Z,24.20
2023-03-29T08:49:18.740Z,23.40
2023-03-29T08:51:47.810Z,22.80
2023-03-29T08:54:18.728Z,22.10
2023-03-29T08:57:31.971Z,22.40
2023-03-29T09:00:05.883Z,22.20
2023-03-29T09:02:37.587Z,22.70
2023-03-29T09:05:18.752Z,22.60
2023-03-29T09:07:56.153Z,22.70
2023-03-29T09:10:30.528Z,22.70
2023-03-29T09:13:06.391Z,22.10
2023-03-29T09:15:43.769Z,22.30
2023-03-29T09:18:55.096Z,22.50
2023-03-29T09:21:22.380Z,21.80
2023-03-29T09:23:54.688Z,21.00
2023-03-29T09:27:10.115Z,21.40
2023-03-29T09:29:47.344Z,21.80
2023-03-29T09:32:19.621Z,21.50
2023-03-29T09:34:54.521Z,21.50
2023-03-29T09:37:25.122Z,21.30
2023-03-29T09:39:53.211Z,21.70
2023-03-29T09:42:24.197Z,21.70
2023-03-29T09:44:52.726Z,21.60
2023-03-29T09:47:36.834Z,21.50
2023-03-29T09:50:30.281Z,21.20
2023-03-29T09:53:01.153Z,20.90
2023-03-29T09:55:32.358Z,21.00
2023-03-29T09:58:11.416Z,21.20
2023-03-29T10:00:41.008Z,21.90
2023-03-29T10:03:10.054Z,21.70
2023-03-29T10:05:53.128Z,21.30
2023-03-29T10:08:22.436Z,21.50
2023-03-29T10:10:50.544Z,21.60
2023-03-29T10:13:23.215Z,21.20
2023-03-29T10:16:17.125Z,20.80
2023-03-29T10:18:44.848Z,20.50
2023-03-29T10:21:14.573Z,20.90
2023-03-29T10:23:42.261Z,21.20
2023-03-29T10:26:19.616Z,21.10
2023-03-29T10:28:46.442Z,21.00
2023-03-29T10:31:18.434Z,21.50
2023-03-29T10:33:50.874Z,21.90
2023-03-29T10:36:17.776Z,21.70
2023-03-29T10:38:44.774Z,21.60
2023-03-29T10:41:12.630Z,21.70
2023-03-29T10:43:43.008Z,21.70
2023-03-29T10:46:19.821Z,21.20
2023-03-29T10:48:48.333Z,21.20
2023-03-29T10:51:17.019Z,21.50
2023-03-29T10:53:44.094Z,21.20
2023-03-29T10:56:29.358Z,20.60
2023-03-29T10:58:58.951Z,20.70
2023-03-29T11:01:39.414Z,21.00
2023-03-29T11:04:10.169Z,20.40
2023-03-29T11:06:43.415Z,20.70
2023-03-29T11:09:30.545Z,20.60
2023-03-29T11:12:15.741Z,20.80
2023-03-29T11:15:02.520Z,20.40
2023-03-29T11:17:30.596Z,20.50
2023-03-29T11:20:16.020Z,20.60
2023-03-29T11:22:49.330Z,20.90
2023-03-29T11:25:32.157Z,21.60
2023-03-29T11:28:14.842Z,22.10
2023-03-29T11:30:53.574Z,22.40
2023-03-29T11:33:32.828Z,23.10
2023-03-29T11:36:02.510Z,23.30
2023-03-29T11:38:32.931Z,23.50
2023-03-29T11:41:20.147Z,23.20
2023-03-29T11:43:49.093Z,22.90
2023-03-29T11:46:21.842Z,22.90
2023-03-29T11:49:04.593Z,22.80
2023-03-29T11:51:37.839Z,22.60
2023-03-29T11:54:10.902Z,23.00
2023-03-29T11:56:41.250Z,22.90
2023-03-29T11:59:22.394Z,22.30
2023-03-29T12:01:52.926Z,22.20
2023-03-29T12:04:32.375Z,22.10
2023-03-29T12:07:09.835Z,22.10
2023-03-29T12:09:50.270Z,22.80
2023-03-29T12:12:27.159Z,23.10
2023-03-29T12:15:04.883Z,23.50
2023-03-29T12:17:34.194Z,23.50
2023-03-29T12:20:07.121Z,23.20
2023-03-29T12:22:40.871Z,22.70
2023-03-29T12:25:12.758Z,23.10
2023-03-29T12:27:55.312Z,23.60
2023-03-29T12:30:22.245Z,23.70
2023-03-29T12:32:58.319Z,23.70
2023-03-29T12:35:52.921Z,23.50
2023-03-29T12:38:38.529Z,24.30
2023-03-29T12:41:41.746Z,25.10
2023-03-29T12:44:27.314Z,25.20
2023-03-29T12:47:02.491Z,25.70
2023-03-29T12:49:37.578Z,26.10
2023-03-29T12:52:10.130Z,25.90
2023-03-29T12:54:36.920Z,24.80
2023-03-29T12:57:20.969Z,24.80
2023-03-29T12:59:49.024Z,25.50
2023-03-29T13:02:17.655Z,26.00
2023-03-29T13:04:57.708Z,26.10
2023-03-29T13:07:26.473Z,26.00
2023-03-29T13:10:03.930Z,25.80
2023-03-29T13:12:33.473Z,25.60
2023-03-29T13:15:02.466Z,25.00
2023-03-29T13:17:38.264Z,24.60
2023-03-29T13:20:14.380Z,24.50
2023-03-29T13:23:04.272Z,24.50
2023-03-29T13:25:49.863Z,24.80
2023-03-29T13:28:19.420Z,25.10
2023-03-29T13:31:06.531Z,25.50
2023-03-29T13:33:45.098Z,25.60
2023-03-29T13:36:27.234Z,25.80
2023-03-29T13:38:55.326Z,26.40
2023-03-29T13:41:29.007Z,27.00
2023-03-29T13:43:56.227Z,27.80
2023-03-29T13:46:24.581Z,27.40
2023-03-29T13:49:00.780Z,26.70
2023-03-29T13:51:32.527Z,26.00
2023-03-29T13:54:11.485Z,25.70
2023-03-29T13:56:40.641Z,25.70
2023-03-29T13:59:12.304Z,25.50
2023-03-29T14:01:43.114Z,25.20
2023-03-29T14:04:14.500Z,25.20
2023-03-29T14:06:42.623Z,25.10
2023-03-29T14:09:12.746Z,25.10
2023-03-29T14:11:44.285Z,25.20
2023-03-29T14:14:11.357Z,25.40
2023-03-29T14:16:39.665Z,25.70
2023-03-29T14:19:13.476Z,25.70
2023-03-29T14:21:41.333Z,25.60
2023-03-29T14:24:12.501Z,26.00
2023-03-29T14:26:43.842Z,26.10
2023-03-29T14:29:11.956Z,26.30
2023-03-29T14:31:40.130Z,26.10
2023-03-29T14:34:10.791Z,26.00
2023-03-29T14:36:38.433Z,26.00
2023-03-29T14:39:08.278Z,26.80
2023-03-29T14:41:36.764Z,27.20
2023-03-29T14:44:04.931Z,27.60
2023-03-29T14:46:33.912Z,27.70
2023-03-29T14:49:02.212Z,27.70
2023-03-29T14:51:31.064Z,27.70
2023-03-29T14:53:58.543Z,27.50
2023-03-29T14:56:26.419Z,27.70
2023-03-29T14:58:54.634Z,27.80
2023-03-29T15:01:23.559Z,28.40
2023-03-29T15:03:54.891Z,28.70
2023-03-29T15:06:23.406Z,28.60
2023-03-29T15:09:03.706Z,29.00
2023-03-29T15:11:32.222Z,29.30
2023-03-29T15:14:08.609Z,29.20
2023-03-29T15:16:45.657Z,29.10
2023-03-29T15:19:19.694Z,29.30
2023-03-29T15:21:48.372Z,30.00
2023-03-29T15:24:33.660Z,29.70
2023-03-29T15:27:04.211Z,29.70
2023-03-29T15:29:36.226Z,30.00
2023-03-29T15:32:03.619Z,30.00
2023-03-29T15:34:31.658Z,29.90
2023-03-29T15:36:59.012Z,30.10
2023-03-29T15:39:27.751Z,30.30
2023-03-29T15:41:56.825Z,30.50
2023-03-29T15:44:27.683Z,30.80
2023-03-29T15:46:58.366Z,30.50
2023-03-29T15:49:25.873Z,30.70
2023-03-29T15:51:54.062Z,31.30
2023-03-29T15:54:21.776Z,31.80
2023-03-29T15:56:51.289Z,32.10
2023-03-29T15:59:18.242Z,32.90
2023-03-29T16:01:46.999Z,33.50
2023-03-29T16:04:15.435Z,34.30
2023-03-29T16:06:43.213Z,35.00
2023-03-29T16:09:12.091Z,35.30
2023-03-29T16:11:40.866Z,35.70
2023-03-29T16:14:20.139Z,36.20
2023-03-29T16:16:47.191Z,36.80
2023-03-29T16:19:14.335Z,37.30
2023-03-29T16:21:43.109Z,38.00
2023-03-29T16:24:17.614Z,38.90
2023-03-29T16:26:44.469Z,39.20
2023-03-29T16:29:11.341Z,39.90
2023-03-29T16:31:38.923Z,40.00
2023-03-29T16:34:06.220Z,40.40
2023-03-29T16:36:33.829Z,41.00
2023-03-29T16:39:00.725Z,41.50
2023-03-29T16:41:27.740Z,42.00
2023-03-29T16:43:54.514Z,42.40
2023-03-29T16:46:21.416Z,42.60
2023-03-29T16:48:48.943Z,42.70
2023-03-29T16:51:15.833Z,43.00
2023-03-29T16:53:43.064Z,43.30
2023-03-29T16:56:10.922Z,43.50
2023-03-29T16:58:41.110Z,44.10
2023-03-29T17:01:13.303Z,45.00
2023-03-29T17:03:40.523Z,45.70
2023-03-29T17:06:07.569Z,46.40
2023-03-29T17:08:34.641Z,47.00
2023-03-29T17:11:01.765Z,47.40
2023-03-29T17:13:28.689Z,47.80
2023-03-29T17:15:56.274Z,48.20
2023-03-29T17:18:24.654Z,48.60
2023-03-29T17:20:51.905Z,49.00
2023-03-29T17:23:18.879Z,49.40
2023-03-29T17:25:45.724Z,49.80
2023-03-29T17:28:12.878Z,50.10
2023-03-29T17:30:39.771Z,50.50
2023-03-29T17:33:08.204Z,50.80
2023-03-29T17:35:35.224Z,51.00
2023-03-29T17:38:03.293Z,52.00
2023-03-29T17:40:30.355Z,51.70
2023-03-29T17:42:57.180Z,52.10
2023-03-29T17:45:24.010Z,53.10
2023-03-29T17:47:50.886Z,52.80
2023-03-29T17:50:17.875Z,53.30
2023-03-29T17:52:45.145Z,53.80
2023-03-29T17:55:13.835Z,54.30
2023-03-29T17:57:41.228Z,54.60
2023-03-29T18:00:09.478Z,55.00
2023-03-29T18:02:36.702Z,55.50
2023-03-29T18:05:04.466Z,55.70
2023-03-29T18:07:31.665Z,56.00
2023-03-29T18:09:58.598Z,56.40
2023-03-29T18:12:26.193Z,56.60
2023-03-29T18:14:53.051Z,57.10
2023-03-29T18:17:19.903Z,57.30
2023-03-29T18:19:46.737Z,57.60
2023-03-29T18:22:13.556Z,57.90
2023-03-29T18:24:40.354Z,58.20
2023-03-29T18:27:07.124Z,58.30
2023-03-29T18:29:33.959Z,58.20
2023-03-29T18:32:03.020Z,58.10
2023-03-29T18:34:30.713Z,58.00
2023-03-29T18:36:57.745Z,57.80
2023-03-29T18:39:24.605Z,57.70
2023-03-29T18:41:52.090Z,57.70
2023-03-29T18:44:19.043Z,57.80
2023-03-29T18:46:45.957Z,57.70
2023-03-29T18:49:13.202Z,57.60
2023-03-29T18:51:42.136Z,57.40
2023-03-29T18:54:09.129Z,57.30
2023-03-29T18:56:36.016Z,57.20
2023-03-29T18:59:06.193Z,57.10
2023-03-29T19:01:33.278Z,57.10
2023-03-29T19:04:00.500Z,57.10
2023-03-29T19:06:27.355Z,57.00
2023-03-29T19:08:55.407Z,56.90
2023-03-29T19:11:23.013Z,56.70
2023-03-29T19:13:50.872Z,56.60
2023-03-29T19:16:17.851Z,56.60
2023-03-29T19:18:44.772Z,56.50
2023-03-29T19:21:11.649Z,56.60
2023-03-29T19:23:38.725Z,56.70
2023-03-29T19:26:06.262Z,56.90
2023-03-29T19:28:33.877Z,57.00
2023-03-29T19:31:03.521Z,57.30
2023-03-29T19:33:30.445Z,57.50
2023-03-29T19:35:57.508Z,57.60
2023-03-29T19:38:24.720Z,57.80
2023-03-29T19:40:51.797Z,58.00
2023-03-29T19:43:20.709Z,58.20
2023-03-29T19:45:48.736Z,58.40
2023-03-29T19:48:22.270Z,58.40
2023-03-29T19:50:50.392Z,58.60
2023-03-29T19:53:17.259Z,58.70
2023-03-29T19:55:45.321Z,58.70
2023-03-29T19:58:12.685Z,58.90
2023-03-29T20:00:39.571Z,58.90
2023-03-29T20:03:09.910Z,59.10
2023-03-29T20:05:38.200Z,59.10
2023-03-29T20:08:05.425Z,59.30
2023-03-29T20:10:32.916Z,59.50
2023-03-29T20:13:00.544Z,59.90
2023-03-29T20:15:27.446Z,60.30
2023-03-29T20:17:56.984Z,60.50
2023-03-29T20:20:25.677Z,60.70
2023-03-29T20:22:58.067Z,60.70
2023-03-29T20:25:25.136Z,61.00
2023-03-29T20:27:53.187Z,61.00
2023-03-29T20:30:20.300Z,61.30
2023-03-29T20:32:47.365Z,61.20
2023-03-29T20:35:14.380Z,61.20
2023-03-29T20:37:41.389Z,61.30
2023-03-29T20:40:11.026Z,61.50
2023-03-29T20:42:38.764Z,61.70
2023-03-29T20:45:05.868Z,61.90
2023-03-29T20:47:32.700Z,62.10
2023-03-29T20:50:01.646Z,62.40
2023-03-29T20:52:28.444Z,62.50
2023-03-29T20:54:55.351Z,62.60
2023-03-29T20:57:22.290Z,62.60
2023-03-29T20:59:49.294Z,62.70
2023-03-29T21:02:21.176Z,63.00
2023-03-29T21:04:52.259Z,63.10
2023-03-29T21:07:20.092Z,63.20
2023-03-29T21:09:48.366Z,63.30
2023-03-29T21:12:15.241Z,63.40
2023-03-29T21:14:42.088Z,63.50
2023-03-29T21:17:09.354Z,63.80
2023-03-29T21:19:37.839Z,64.00
2023-03-29T21:22:05.023Z,64.10
2023-03-29T21:24:33.145Z,64.20
2023-03-29T21:27:00.587Z,64.10
2023-03-29T21:29:27.641Z,64.30
2023-03-29T21:31:54.890Z,64.30
2023-03-29T21:34:21.875Z,64.30
2023-03-29T21:36:48.693Z,64.60
2023-03-29T21:39:15.639Z,64.70
2023-03-29T21:41:42.469Z,64.70
2023-03-29T21:44:09.333Z,64.80
2023-03-29T21:46:36.169Z,64.80
2023-03-29T21:49:03.023Z,65.70
2023-03-29T21:51:29.878Z,65.00
2023-03-29T21:53:56.689Z,65.00
2023-03-29T21:56:23.479Z,65.00
2023-03-29T21:58:50.699Z,65.00
2023-03-29T22:01:17.677Z,65.10
2023-03-29T22:03:44.534Z,65.30
2023-03-29T22:06:12.745Z,65.30
2023-03-29T22:08:39.798Z,65.60
2023-03-29T22:11:08.586Z,65.80
2023-03-29T22:13:35.633Z,65.90
2023-03-29T22:16:06.150Z,66.10
2023-03-29T22:18:43.225Z,66.10
2023-03-29T22:21:12.303Z,66.20
2023-03-29T22:23:39.785Z,66.20
2023-03-29T22:26:07.189Z,66.20
2023-03-29T22:28:35.200Z,66.20
2023-03-29T22:31:03.082Z,66.20
2023-03-29T22:33:31.418Z,66.20
2023-03-29T22:35:58.221Z,66.30
2023-03-29T22:38:25.048Z,66.40
2023-03-29T22:40:51.842Z,66.50
2023-03-29T22:43:18.641Z,66.60
2023-03-29T22:45:45.508Z,66.70
2023-03-29T22:48:12.321Z,66.70
2023-03-29T22:50:42.848Z,66.70
2023-03-29T22:53:10.291Z,66.70
2023-03-29T22:55:37.561Z,67.50
2023-03-29T22:58:04.379Z,66.90
2023-03-29T23:00:32.020Z,67.00
2023-03-29T23:02:58.961Z,67.00
2023-03-29T23:05:26.088Z,67.30
2023-03-29T23:07:52.934Z,67.40
2023-03-29T23:10:19.757Z,67.60
2023-03-29T23:12:49.613Z,67.80
2023-03-29T23:15:17.124Z,68.00
2023-03-29T23:17:44.180Z,68.10
2023-03-29T23:20:11.399Z,68.30
2023-03-29T23:22:39.693Z,68.40
2023-03-29T23:25:07.549Z,68.70
2023-03-29T23:27:34.669Z,68.80
2023-03-29T23:30:01.699Z,68.80
2023-03-29T23:32:28.800Z,68.90
2023-03-29T23:34:55.790Z,69.00
2023-03-29T23:37:23.141Z,69.00
2023-03-29T23:39:49.964Z,69.70
2023-03-29T23:42:17.316Z,68.90
2023-03-29T23:44:45.664Z,69.10
2023-03-29T23:47:12.467Z,69.10
2023-03-29T23:49:39.274Z,69.10
2023-03-29T23:52:06.049Z,69.10
2023-03-29T23:54:32.954Z,69.10
2023-03-29T23:57:00.248Z,69.90
2023-03-29T23:59:30.673Z,69.00
